sensor_id;sensor_type;location;lat;lon;timestamp;P1;durP1;ratioP1;P2;durP2;ratioP2
39654;SDS011;25336;59.944;11.010;2023-03-14T00:00:34;1.50;;;1.30;;
39654;SDS011;25336;59.944;11.010;2023-03-14T00:03:00;0.95;;;0.95;;
39654;SDS011;25336;59.944;11.010;2023-03-14T00:05:26;1.25;;;1.20;;
39654;SDS011;25336;59.944;11.010;2023-03-14T00:07:51;1.00;;;1.00;;
39654;SDS011;25336;59.944;11.010;2023-03-14T00:10:17;1.45;;;1.35;;
39654;SDS011;25336;59.944;11.010;2023-03-14T00:12:43;1.15;;;1.08;;
39654;SDS011;25336;59.944;11.010;2023-03-14T00:15:09;1.35;;;1.25;;
39654;SDS011;25336;59.944;11.010;2023-03-14T00:17:36;1.10;;;1.10;;
39654;SDS011;25336;59.944;11.010;2023-03-14T00:20:03;1.20;;;1.10;;
39654;SDS011;25336;59.944;11.010;2023-03-14T00:22:39;1.10;;;1.10;;
39654;SDS011;25336;59.944;11.010;2023-03-14T00:25:07;1.15;;;1.15;;
39654;SDS011;25336;59.944;11.010;2023-03-14T00:27:33;0.90;;;0.90;;
39654;SDS011;25336;59.944;11.010;2023-03-14T00:29:59;1.80;;;1.60;;
39654;SDS011;25336;59.944;11.010;2023-03-14T00:32:25;1.75;;;1.30;;
39654;SDS011;25336;59.944;11.010;2023-03-14T00:34:51;1.85;;;1.45;;
39654;SDS011;25336;59.944;11.010;2023-03-14T00:37:16;1.40;;;1.30;;
39654;SDS011;25336;59.944;11.010;2023-03-14T00:39:42;2.80;;;1.83;;
39654;SDS011;25336;59.944;11.010;2023-03-14T00:42:07;3.80;;;1.52;;
39654;SDS011;25336;59.944;11.010;2023-03-14T00:44:33;1.17;;;1.10;;
39654;SDS011;25336;59.944;11.010;2023-03-14T00:46:59;1.45;;;1.35;;
39654;SDS011;25336;59.944;11.010;2023-03-14T00:49:24;1.52;;;1.42;;
39654;SDS011;25336;59.944;11.010;2023-03-14T00:51:50;1.55;;;1.45;;
39654;SDS011;25336;59.944;11.010;2023-03-14T00:54:17;2.00;;;1.80;;
39654;SDS011;25336;59.944;11.010;2023-03-14T00:56:43;2.28;;;1.50;;
39654;SDS011;25336;59.944;11.010;2023-03-14T00:59:09;1.35;;;1.25;;
39654;SDS011;25336;59.944;11.010;2023-03-14T01:01:34;1.40;;;1.30;;
39654;SDS011;25336;59.944;11.010;2023-03-14T01:04:00;1.15;;;1.15;;
39654;SDS011;25336;59.944;11.010;2023-03-14T01:06:26;1.58;;;1.48;;
39654;SDS011;25336;59.944;11.010;2023-03-14T01:08:54;1.38;;;1.27;;
39654;SDS011;25336;59.944;11.010;2023-03-14T01:11:21;1.10;;;1.00;;
39654;SDS011;25336;59.944;11.010;2023-03-14T01:13:51;1.80;;;1.30;;
39654;SDS011;25336;59.944;11.010;2023-03-14T01:16:18;1.27;;;1.17;;
39654;SDS011;25336;59.944;11.010;2023-03-14T01:18:45;1.88;;;1.23;;
39654;SDS011;25336;59.944;11.010;2023-03-14T01:21:21;1.52;;;1.40;;
39654;SDS011;25336;59.944;11.010;2023-03-14T01:23:55;1.20;;;1.10;;
39654;SDS011;25336;59.944;11.010;2023-03-14T01:26:22;1.48;;;1.20;;
39654;SDS011;25336;59.944;11.010;2023-03-14T01:28:49;1.30;;;1.17;;
39654;SDS011;25336;59.944;11.010;2023-03-14T01:31:16;1.63;;;1.45;;
39654;SDS011;25336;59.944;11.010;2023-03-14T01:33:43;1.27;;;1.10;;
39654;SDS011;25336;59.944;11.010;2023-03-14T01:36:09;2.78;;;1.33;;
39654;SDS011;25336;59.944;11.010;2023-03-14T01:38:36;1.60;;;1.50;;
39654;SDS011;25336;59.944;11.010;2023-03-14T01:41:03;1.63;;;1.40;;
39654;SDS011;25336;59.944;11.010;2023-03-14T01:43:29;1.52;;;1.38;;
39654;SDS011;25336;59.944;11.010;2023-03-14T01:51:08;1.40;;;1.20;;
39654;SDS011;25336;59.944;11.010;2023-03-14T01:53:44;1.65;;;1.35;;
39654;SDS011;25336;59.944;11.010;2023-03-14T01:56:11;3.80;;;1.77;;
39654;SDS011;25336;59.944;11.010;2023-03-14T01:58:39;1.55;;;1.42;;
39654;SDS011;25336;59.944;11.010;2023-03-14T02:01:10;1.58;;;1.48;;
39654;SDS011;25336;59.944;11.010;2023-03-14T02:03:38;3.08;;;1.55;;
39654;SDS011;25336;59.944;11.010;2023-03-14T02:06:12;2.05;;;1.80;;
39654;SDS011;25336;59.944;11.010;2023-03-14T02:08:42;2.90;;;1.77;;
39654;SDS011;25336;59.944;11.010;2023-03-14T02:11:12;3.70;;;1.65;;
39654;SDS011;25336;59.944;11.010;2023-03-14T02:13:38;1.80;;;1.70;;
39654;SDS011;25336;59.944;11.010;2023-03-14T02:16:04;4.40;;;1.92;;
39654;SDS011;25336;59.944;11.010;2023-03-14T02:18:30;2.75;;;2.17;;
39654;SDS011;25336;59.944;11.010;2023-03-14T02:23:30;1.35;;;1.25;;
39654;SDS011;25336;59.944;11.010;2023-03-14T02:26:20;3.00;;;1.60;;
39654;SDS011;25336;59.944;11.010;2023-03-14T02:28:47;4.68;;;1.75;;
39654;SDS011;25336;59.944;11.010;2023-03-14T02:31:13;1.80;;;1.30;;
39654;SDS011;25336;59.944;11.010;2023-03-14T02:33:39;2.58;;;1.30;;
39654;SDS011;25336;59.944;11.010;2023-03-14T02:36:06;1.63;;;1.25;;
39654;SDS011;25336;59.944;11.010;2023-03-14T02:41:04;1.77;;;1.50;;
39654;SDS011;25336;59.944;11.010;2023-03-14T02:43:30;2.72;;;1.25;;
39654;SDS011;25336;59.944;11.010;2023-03-14T02:45:56;3.95;;;1.40;;
39654;SDS011;25336;59.944;11.010;2023-03-14T02:48:56;2.40;;;1.42;;
39654;SDS011;25336;59.944;11.010;2023-03-14T02:51:18;1.77;;;1.52;;
39654;SDS011;25336;59.944;11.010;2023-03-14T02:53:46;1.45;;;1.20;;
39654;SDS011;25336;59.944;11.010;2023-03-14T02:56:11;1.98;;;1.30;;
39654;SDS011;25336;59.944;11.010;2023-03-14T02:58:37;1.70;;;1.60;;
39654;SDS011;25336;59.944;11.010;2023-03-14T03:01:02;2.45;;;1.40;;
39654;SDS011;25336;59.944;11.010;2023-03-14T03:03:28;1.80;;;1.55;;
39654;SDS011;25336;59.944;11.010;2023-03-14T03:05:55;1.42;;;1.33;;
39654;SDS011;25336;59.944;11.010;2023-03-14T03:08:22;1.30;;;1.20;;
39654;SDS011;25336;59.944;11.010;2023-03-14T03:10:49;2.80;;;1.77;;
39654;SDS011;25336;59.944;11.010;2023-03-14T03:13:15;1.63;;;1.52;;
39654;SDS011;25336;59.944;11.010;2023-03-14T03:15:42;3.60;;;1.65;;
39654;SDS011;25336;59.944;11.010;2023-03-14T03:18:08;1.63;;;1.52;;
39654;SDS011;25336;59.944;11.010;2023-03-14T03:20:34;2.45;;;2.13;;
39654;SDS011;25336;59.944;11.010;2023-03-14T03:22:59;3.50;;;2.20;;
39654;SDS011;25336;59.944;11.010;2023-03-14T03:25:25;1.80;;;1.67;;
39654;SDS011;25336;59.944;11.010;2023-03-14T03:27:51;3.80;;;2.10;;
39654;SDS011;25336;59.944;11.010;2023-03-14T03:30:17;3.10;;;1.60;;
39654;SDS011;25336;59.944;11.010;2023-03-14T03:32:43;6.38;;;3.90;;
39654;SDS011;25336;59.944;11.010;2023-03-14T03:35:09;10.82;;;6.85;;
39654;SDS011;25336;59.944;11.010;2023-03-14T03:37:34;7.53;;;4.88;;
39654;SDS011;25336;59.944;11.010;2023-03-14T03:40:00;3.75;;;3.17;;
39654;SDS011;25336;59.944;11.010;2023-03-14T03:42:29;2.85;;;2.10;;
39654;SDS011;25336;59.944;11.010;2023-03-14T03:44:55;3.20;;;2.72;;
39654;SDS011;25336;59.944;11.010;2023-03-14T03:47:20;3.95;;;3.17;;
39654;SDS011;25336;59.944;11.010;2023-03-14T03:49:46;3.83;;;2.67;;
39654;SDS011;25336;59.944;11.010;2023-03-14T03:52:11;3.03;;;2.05;;
39654;SDS011;25336;59.944;11.010;2023-03-14T03:54:37;1.90;;;1.80;;
39654;SDS011;25336;59.944;11.010;2023-03-14T03:57:02;2.25;;;1.70;;
39654;SDS011;25336;59.944;11.010;2023-03-14T03:59:28;2.65;;;1.83;;
39654;SDS011;25336;59.944;11.010;2023-03-14T04:01:54;3.28;;;1.90;;
39654;SDS011;25336;59.944;11.010;2023-03-14T04:04:19;1.50;;;1.40;;
39654;SDS011;25336;59.944;11.010;2023-03-14T04:06:45;2.20;;;1.38;;
39654;SDS011;25336;59.944;11.010;2023-03-14T04:09:11;1.55;;;1.45;;
39654;SDS011;25336;59.944;11.010;2023-03-14T04:11:37;3.35;;;1.70;;
39654;SDS011;25336;59.944;11.010;2023-03-14T04:14:03;1.70;;;1.60;;
39654;SDS011;25336;59.944;11.010;2023-03-14T04:16:29;1.35;;;1.25;;
39654;SDS011;25336;59.944;11.010;2023-03-14T04:18:56;1.50;;;1.40;;
39654;SDS011;25336;59.944;11.010;2023-03-14T04:21:22;1.13;;;1.02;;
39654;SDS011;25336;59.944;11.010;2023-03-14T04:23:48;1.10;;;1.10;;
39654;SDS011;25336;59.944;11.010;2023-03-14T04:26:14;2.72;;;1.30;;
39654;SDS011;25336;59.944;11.010;2023-03-14T04:28:41;1.10;;;1.00;;
39654;SDS011;25336;59.944;11.010;2023-03-14T04:31:10;1.25;;;1.10;;
39654;SDS011;25336;59.944;11.010;2023-03-14T04:33:37;1.45;;;1.35;;
39654;SDS011;25336;59.944;11.010;2023-03-14T04:36:03;1.05;;;1.05;;
39654;SDS011;25336;59.944;11.010;2023-03-14T04:38:30;0.88;;;0.88;;
39654;SDS011;25336;59.944;11.010;2023-03-14T04:40:56;1.42;;;1.10;;
39654;SDS011;25336;59.944;11.010;2023-03-14T04:43:21;1.48;;;0.93;;
39654;SDS011;25336;59.944;11.010;2023-03-14T04:45:47;0.93;;;0.93;;
39654;SDS011;25336;59.944;11.010;2023-03-14T04:48:14;1.98;;;1.30;;
39654;SDS011;25336;59.944;11.010;2023-03-14T04:50:42;1.50;;;1.00;;
39654;SDS011;25336;59.944;11.010;2023-03-14T04:53:07;1.13;;;1.02;;
39654;SDS011;25336;59.944;11.010;2023-03-14T04:55:33;1.33;;;1.23;;
39654;SDS011;25336;59.944;11.010;2023-03-14T04:57:59;2.00;;;1.23;;
39654;SDS011;25336;59.944;11.010;2023-03-14T05:00:25;1.00;;;1.00;;
39654;SDS011;25336;59.944;11.010;2023-03-14T05:02:50;1.15;;;1.15;;
39654;SDS011;25336;59.944;11.010;2023-03-14T05:05:16;3.03;;;1.10;;
39654;SDS011;25336;59.944;11.010;2023-03-14T05:07:42;1.10;;;1.00;;
39654;SDS011;25336;59.944;11.010;2023-03-14T05:10:08;2.42;;;1.23;;
39654;SDS011;25336;59.944;11.010;2023-03-14T05:12:34;1.17;;;1.08;;
39654;SDS011;25336;59.944;11.010;2023-03-14T05:15:00;2.95;;;1.23;;
39654;SDS011;25336;59.944;11.010;2023-03-14T05:17:25;4.13;;;1.60;;
39654;SDS011;25336;59.944;11.010;2023-03-14T05:19:51;1.13;;;1.10;;
39654;SDS011;25336;59.944;11.010;2023-03-14T05:22:16;1.55;;;1.35;;
39654;SDS011;25336;59.944;11.010;2023-03-14T05:24:42;4.88;;;1.20;;
39654;SDS011;25336;59.944;11.010;2023-03-14T05:27:08;1.90;;;1.50;;
39654;SDS011;25336;59.944;11.010;2023-03-14T05:29:33;2.03;;;1.50;;
39654;SDS011;25336;59.944;11.010;2023-03-14T05:31:59;1.95;;;1.52;;
39654;SDS011;25336;59.944;11.010;2023-03-14T05:34:24;4.15;;;1.45;;
39654;SDS011;25336;59.944;11.010;2023-03-14T05:36:50;4.07;;;3.65;;
39654;SDS011;25336;59.944;11.010;2023-03-14T05:39:15;6.85;;;6.22;;
39654;SDS011;25336;59.944;11.010;2023-03-14T05:41:41;3.55;;;3.00;;
39654;SDS011;25336;59.944;11.010;2023-03-14T05:44:07;2.45;;;1.92;;
39654;SDS011;25336;59.944;11.010;2023-03-14T05:46:32;0.98;;;0.98;;
39654;SDS011;25336;59.944;11.010;2023-03-14T05:48:58;1.95;;;1.55;;
39654;SDS011;25336;59.944;11.010;2023-03-14T05:51:24;3.83;;;2.80;;
39654;SDS011;25336;59.944;11.010;2023-03-14T05:53:50;5.20;;;1.85;;
39654;SDS011;25336;59.944;11.010;2023-03-14T05:56:15;5.57;;;2.33;;
39654;SDS011;25336;59.944;11.010;2023-03-14T05:58:41;1.83;;;1.73;;
39654;SDS011;25336;59.944;11.010;2023-03-14T06:01:07;3.90;;;2.10;;
39654;SDS011;25336;59.944;11.010;2023-03-14T06:03:33;2.13;;;1.98;;
39654;SDS011;25336;59.944;11.010;2023-03-14T06:05:59;3.75;;;1.67;;
39654;SDS011;25336;59.944;11.010;2023-03-14T06:08:24;10.30;;;1.92;;
39654;SDS011;25336;59.944;11.010;2023-03-14T06:10:51;2.47;;;2.28;;
39654;SDS011;25336;59.944;11.010;2023-03-14T06:13:17;6.05;;;2.13;;
39654;SDS011;25336;59.944;11.010;2023-03-14T06:15:42;2.08;;;1.98;;
39654;SDS011;25336;59.944;11.010;2023-03-14T06:18:08;4.28;;;3.55;;
39654;SDS011;25336;59.944;11.010;2023-03-14T06:20:37;4.03;;;3.30;;
39654;SDS011;25336;59.944;11.010;2023-03-14T06:23:06;6.97;;;3.15;;
39654;SDS011;25336;59.944;11.010;2023-03-14T06:25:32;4.32;;;2.55;;
39654;SDS011;25336;59.944;11.010;2023-03-14T06:27:59;2.38;;;2.17;;
39654;SDS011;25336;59.944;11.010;2023-03-14T06:30:24;2.90;;;2.13;;
39654;SDS011;25336;59.944;11.010;2023-03-14T06:32:50;2.22;;;1.83;;
39654;SDS011;25336;59.944;11.010;2023-03-14T06:35:15;2.88;;;1.58;;
39654;SDS011;25336;59.944;11.010;2023-03-14T06:37:41;3.10;;;1.80;;
39654;SDS011;25336;59.944;11.010;2023-03-14T06:40:08;19.73;;;2.65;;
39654;SDS011;25336;59.944;11.010;2023-03-14T06:42:34;2.35;;;1.85;;
39654;SDS011;25336;59.944;11.010;2023-03-14T06:45:00;4.20;;;2.45;;
39654;SDS011;25336;59.944;11.010;2023-03-14T06:47:26;3.60;;;2.33;;
39654;SDS011;25336;59.944;11.010;2023-03-14T06:49:51;1.83;;;1.65;;
39654;SDS011;25336;59.944;11.010;2023-03-14T06:52:17;4.72;;;2.95;;
39654;SDS011;25336;59.944;11.010;2023-03-14T06:54:42;2.97;;;2.38;;
39654;SDS011;25336;59.944;11.010;2023-03-14T06:57:08;4.00;;;3.47;;
39654;SDS011;25336;59.944;11.010;2023-03-14T06:59:33;9.20;;;3.42;;
39654;SDS011;25336;59.944;11.010;2023-03-14T07:01:59;3.97;;;2.15;;
39654;SDS011;25336;59.944;11.010;2023-03-14T07:04:24;4.80;;;2.72;;
39654;SDS011;25336;59.944;11.010;2023-03-14T07:06:50;12.80;;;3.85;;
39654;SDS011;25336;59.944;11.010;2023-03-14T07:09:16;3.72;;;3.13;;
39654;SDS011;25336;59.944;11.010;2023-03-14T07:11:44;3.40;;;2.35;;
39654;SDS011;25336;59.944;11.010;2023-03-14T07:14:10;3.40;;;2.15;;
39654;SDS011;25336;59.944;11.010;2023-03-14T07:16:36;2.30;;;1.80;;
39654;SDS011;25336;59.944;11.010;2023-03-14T07:19:01;17.33;;;7.30;;
39654;SDS011;25336;59.944;11.010;2023-03-14T07:21:28;23.58;;;13.35;;
39654;SDS011;25336;59.944;11.010;2023-03-14T07:23:54;20.00;;;9.88;;
39654;SDS011;25336;59.944;11.010;2023-03-14T07:26:19;8.80;;;5.85;;
39654;SDS011;25336;59.944;11.010;2023-03-14T07:28:45;6.30;;;4.47;;
39654;SDS011;25336;59.944;11.010;2023-03-14T07:31:11;7.45;;;5.00;;
39654;SDS011;25336;59.944;11.010;2023-03-14T07:33:36;4.20;;;3.45;;
39654;SDS011;25336;59.944;11.010;2023-03-14T07:36:02;3.85;;;3.20;;
39654;SDS011;25336;59.944;11.010;2023-03-14T07:38:29;4.50;;;3.50;;
39654;SDS011;25336;59.944;11.010;2023-03-14T07:41:04;11.02;;;7.43;;
39654;SDS011;25336;59.944;11.010;2023-03-14T07:43:31;8.60;;;4.93;;
39654;SDS011;25336;59.944;11.010;2023-03-14T07:45:57;6.95;;;4.47;;
39654;SDS011;25336;59.944;11.010;2023-03-14T07:48:23;6.70;;;4.47;;
39654;SDS011;25336;59.944;11.010;2023-03-14T07:50:53;8.45;;;3.45;;
39654;SDS011;25336;59.944;11.010;2023-03-14T07:53:19;5.53;;;3.72;;
39654;SDS011;25336;59.944;11.010;2023-03-14T07:55:46;14.55;;;5.00;;
39654;SDS011;25336;59.944;11.010;2023-03-14T07:58:12;146.82;;;57.17;;
39654;SDS011;25336;59.944;11.010;2023-03-14T08:00:38;119.45;;;41.60;;
39654;SDS011;25336;59.944;11.010;2023-03-14T08:03:03;76.72;;;26.13;;
39654;SDS011;25336;59.944;11.010;2023-03-14T08:05:29;34.53;;;12.32;;
39654;SDS011;25336;59.944;11.010;2023-03-14T08:07:55;35.80;;;12.95;;
39654;SDS011;25336;59.944;11.010;2023-03-14T08:10:21;31.92;;;11.13;;
39654;SDS011;25336;59.944;11.010;2023-03-14T08:12:56;38.75;;;13.82;;
39654;SDS011;25336;59.944;11.010;2023-03-14T08:15:24;29.50;;;9.80;;
39654;SDS011;25336;59.944;11.010;2023-03-14T08:17:50;10.13;;;3.83;;
39654;SDS011;25336;59.944;11.010;2023-03-14T08:20:20;8.68;;;3.60;;
39654;SDS011;25336;59.944;11.010;2023-03-14T08:22:48;12.50;;;2.95;;
39654;SDS011;25336;59.944;11.010;2023-03-14T08:25:14;7.35;;;2.03;;
39654;SDS011;25336;59.944;11.010;2023-03-14T08:27:40;4.30;;;2.33;;
39654;SDS011;25336;59.944;11.010;2023-03-14T08:30:07;2.40;;;1.70;;
39654;SDS011;25336;59.944;11.010;2023-03-14T08:32:34;1.48;;;1.30;;
39654;SDS011;25336;59.944;11.010;2023-03-14T08:35:00;1.55;;;1.10;;
39654;SDS011;25336;59.944;11.010;2023-03-14T08:37:26;1.83;;;0.95;;
39654;SDS011;25336;59.944;11.010;2023-03-14T08:39:52;6.40;;;0.80;;
39654;SDS011;25336;59.944;11.010;2023-03-14T08:42:18;1.83;;;1.05;;
39654;SDS011;25336;59.944;11.010;2023-03-14T08:44:43;2.42;;;2.22;;
39654;SDS011;25336;59.944;11.010;2023-03-14T08:47:09;1.00;;;0.90;;
39654;SDS011;25336;59.944;11.010;2023-03-14T08:49:35;1.10;;;1.00;;
39654;SDS011;25336;59.944;11.010;2023-03-14T08:52:01;1.00;;;0.90;;
39654;SDS011;25336;59.944;11.010;2023-03-14T08:54:28;0.82;;;0.82;;
39654;SDS011;25336;59.944;11.010;2023-03-14T08:56:54;1.10;;;1.00;;
39654;SDS011;25336;59.944;11.010;2023-03-14T08:59:19;2.03;;;1.20;;
39654;SDS011;25336;59.944;11.010;2023-03-14T09:01:45;1.27;;;1.00;;
39654;SDS011;25336;59.944;11.010;2023-03-14T09:04:10;3.63;;;1.20;;
39654;SDS011;25336;59.944;11.010;2023-03-14T09:06:36;1.88;;;0.98;;
39654;SDS011;25336;59.944;11.010;2023-03-14T09:09:01;4.38;;;1.00;;
39654;SDS011;25336;59.944;11.010;2023-03-14T09:11:27;5.18;;;1.13;;
39654;SDS011;25336;59.944;11.010;2023-03-14T09:13:53;4.72;;;1.42;;
39654;SDS011;25336;59.944;11.010;2023-03-14T09:16:19;3.40;;;1.40;;
39654;SDS011;25336;59.944;11.010;2023-03-14T09:18:44;2.30;;;0.80;;
39654;SDS011;25336;59.944;11.010;2023-03-14T09:21:10;4.13;;;0.90;;
39654;SDS011;25336;59.944;11.010;2023-03-14T09:23:36;2.60;;;0.75;;
39654;SDS011;25336;59.944;11.010;2023-03-14T09:26:01;3.58;;;1.33;;
39654;SDS011;25336;59.944;11.010;2023-03-14T09:28:27;0.95;;;0.88;;
39654;SDS011;25336;59.944;11.010;2023-03-14T09:30:52;2.00;;;0.80;;
39654;SDS011;25336;59.944;11.010;2023-03-14T09:33:19;1.13;;;0.95;;
39654;SDS011;25336;59.944;11.010;2023-03-14T09:35:44;1.52;;;1.15;;
39654;SDS011;25336;59.944;11.010;2023-03-14T09:38:10;0.82;;;0.82;;
39654;SDS011;25336;59.944;11.010;2023-03-14T09:40:36;1.42;;;0.70;;
39654;SDS011;25336;59.944;11.010;2023-03-14T09:43:02;1.10;;;0.75;;
39654;SDS011;25336;59.944;11.010;2023-03-14T09:45:31;2.28;;;0.82;;
39654;SDS011;25336;59.944;11.010;2023-03-14T09:47:59;0.88;;;0.85;;
39654;SDS011;25336;59.944;11.010;2023-03-14T09:50:30;0.73;;;0.70;;
39654;SDS011;25336;59.944;11.010;2023-03-14T09:53:09;3.13;;;1.00;;
39654;SDS011;25336;59.944;11.010;2023-03-14T09:55:39;0.68;;;0.68;;
39654;SDS011;25336;59.944;11.010;2023-03-14T09:58:11;6.13;;;0.88;;
39654;SDS011;25336;59.944;11.010;2023-03-14T10:00:39;0.70;;;0.70;;
39654;SDS011;25336;59.944;11.010;2023-03-14T10:05:36;2.35;;;1.00;;
39654;SDS011;25336;59.944;11.010;2023-03-14T10:08:02;4.53;;;0.98;;
39654;SDS011;25336;59.944;11.010;2023-03-14T10:10:28;1.85;;;0.95;;
39654;SDS011;25336;59.944;11.010;2023-03-14T10:12:58;1.38;;;0.80;;
39654;SDS011;25336;59.944;11.010;2023-03-14T10:15:38;2.03;;;0.70;;
39654;SDS011;25336;59.944;11.010;2023-03-14T10:18:05;0.60;;;0.60;;
39654;SDS011;25336;59.944;11.010;2023-03-14T10:20:44;0.80;;;0.80;;
39654;SDS011;25336;59.944;11.010;2023-03-14T10:25:48;0.95;;;0.60;;
39654;SDS011;25336;59.944;11.010;2023-03-14T10:30:52;5.43;;;1.58;;
39654;SDS011;25336;59.944;11.010;2023-03-14T10:33:22;12.95;;;1.20;;
39654;SDS011;25336;59.944;11.010;2023-03-14T10:36:00;1.35;;;0.93;;
39654;SDS011;25336;59.944;11.010;2023-03-14T10:38:34;1.27;;;0.88;;
39654;SDS011;25336;59.944;11.010;2023-03-14T10:41:00;1.48;;;0.77;;
39654;SDS011;25336;59.944;11.010;2023-03-14T10:43:37;1.58;;;1.00;;
39654;SDS011;25336;59.944;11.010;2023-03-14T10:46:12;0.93;;;0.80;;
39654;SDS011;25336;59.944;11.010;2023-03-14T10:48:41;3.22;;;0.90;;
39654;SDS011;25336;59.944;11.010;2023-03-14T10:51:08;0.95;;;0.70;;
39654;SDS011;25336;59.944;11.010;2023-03-14T10:53:43;0.70;;;0.65;;
39654;SDS011;25336;59.944;11.010;2023-03-14T10:56:55;1.50;;;0.70;;
39654;SDS011;25336;59.944;11.010;2023-03-14T10:59:00;1.63;;;0.60;;
39654;SDS011;25336;59.944;11.010;2023-03-14T11:07:19;1.50;;;0.80;;
39654;SDS011;25336;59.944;11.010;2023-03-14T11:09:56;0.77;;;0.50;;
39654;SDS011;25336;59.944;11.010;2023-03-14T11:15:33;1.77;;;0.90;;
39654;SDS011;25336;59.944;11.010;2023-03-14T11:23:30;1.80;;;1.05;;
39654;SDS011;25336;59.944;11.010;2023-03-14T11:26:18;0.80;;;0.80;;
39654;SDS011;25336;59.944;11.010;2023-03-14T11:28:50;0.63;;;0.63;;
39654;SDS011;25336;59.944;11.010;2023-03-14T11:31:26;0.95;;;0.60;;
39654;SDS011;25336;59.944;11.010;2023-03-14T11:36:31;1.20;;;0.93;;
39654;SDS011;25336;59.944;11.010;2023-03-14T11:39:02;1.65;;;0.85;;
39654;SDS011;25336;59.944;11.010;2023-03-14T11:41:36;1.40;;;0.90;;
39654;SDS011;25336;59.944;11.010;2023-03-14T11:44:22;1.10;;;0.90;;
39654;SDS011;25336;59.944;11.010;2023-03-14T11:47:06;1.15;;;0.80;;
39654;SDS011;25336;59.944;11.010;2023-03-14T11:49:52;1.20;;;0.80;;
39654;SDS011;25336;59.944;11.010;2023-03-14T11:52:29;0.70;;;0.70;;
39654;SDS011;25336;59.944;11.010;2023-03-14T11:57:42;0.82;;;0.82;;
39654;SDS011;25336;59.944;11.010;2023-03-14T12:10:43;1.13;;;0.90;;
39654;SDS011;25336;59.944;11.010;2023-03-14T12:13:13;0.82;;;0.77;;
39654;SDS011;25336;59.944;11.010;2023-03-14T12:15:47;0.88;;;0.88;;
39654;SDS011;25336;59.944;11.010;2023-03-14T12:18:34;0.77;;;0.75;;
39654;SDS011;25336;59.944;11.010;2023-03-14T12:21:07;1.50;;;1.40;;
39654;SDS011;25336;59.944;11.010;2023-03-14T12:23:45;3.85;;;1.63;;
39654;SDS011;25336;59.944;11.010;2023-03-14T12:26:19;1.65;;;1.40;;
39654;SDS011;25336;59.944;11.010;2023-03-14T12:28:51;2.30;;;1.80;;
39654;SDS011;25336;59.944;11.010;2023-03-14T12:31:45;1.92;;;1.52;;
39654;SDS011;25336;59.944;11.010;2023-03-14T12:34:31;1.23;;;0.73;;
39654;SDS011;25336;59.944;11.010;2023-03-14T12:36:59;1.33;;;1.23;;
39654;SDS011;25336;59.944;11.010;2023-03-14T12:39:39;1.30;;;1.20;;
39654;SDS011;25336;59.944;11.010;2023-03-14T12:45:29;1.15;;;0.90;;
39654;SDS011;25336;59.944;11.010;2023-03-14T12:50:24;1.58;;;1.10;;
39654;SDS011;25336;59.944;11.010;2023-03-14T12:52:59;1.85;;;1.35;;
39654;SDS011;25336;59.944;11.010;2023-03-14T12:55:45;1.00;;;0.85;;
39654;SDS011;25336;59.944;11.010;2023-03-14T12:58:36;1.85;;;0.80;;
39654;SDS011;25336;59.944;11.010;2023-03-14T13:01:12;0.70;;;0.70;;
39654;SDS011;25336;59.944;11.010;2023-03-14T13:03:47;1.33;;;0.60;;
39654;SDS011;25336;59.944;11.010;2023-03-14T13:12:23;6.00;;;1.73;;
39654;SDS011;25336;59.944;11.010;2023-03-14T13:14:57;1.00;;;0.90;;
39654;SDS011;25336;59.944;11.010;2023-03-14T13:17:30;1.30;;;0.77;;
39654;SDS011;25336;59.944;11.010;2023-03-14T13:19:58;1.67;;;0.70;;
39654;SDS011;25336;59.944;11.010;2023-03-14T13:22:30;0.77;;;0.70;;
39654;SDS011;25336;59.944;11.010;2023-03-14T13:25:00;1.60;;;0.93;;
39654;SDS011;25336;59.944;11.010;2023-03-14T13:27:35;2.22;;;1.17;;
39654;SDS011;25336;59.944;11.010;2023-03-14T13:32:49;4.15;;;1.27;;
39654;SDS011;25336;59.944;11.010;2023-03-14T13:35:20;0.85;;;0.75;;
39654;SDS011;25336;59.944;11.010;2023-03-14T13:37:51;2.65;;;0.85;;
39654;SDS011;25336;59.944;11.010;2023-03-14T13:40:21;0.70;;;0.70;;
39654;SDS011;25336;59.944;11.010;2023-03-14T13:42:59;0.88;;;0.70;;
39654;SDS011;25336;59.944;11.010;2023-03-14T13:45:29;0.75;;;0.70;;
39654;SDS011;25336;59.944;11.010;2023-03-14T13:47:55;0.60;;;0.60;;
39654;SDS011;25336;59.944;11.010;2023-03-14T13:50:20;2.63;;;2.40;;
39654;SDS011;25336;59.944;11.010;2023-03-14T13:52:46;2.47;;;2.28;;
39654;SDS011;25336;59.944;11.010;2023-03-14T13:55:14;4.45;;;1.83;;
39654;SDS011;25336;59.944;11.010;2023-03-14T13:57:49;2.72;;;1.63;;
39654;SDS011;25336;59.944;11.010;2023-03-14T14:00:28;1.10;;;1.00;;
39654;SDS011;25336;59.944;11.010;2023-03-14T14:02:55;0.90;;;0.80;;
39654;SDS011;25336;59.944;11.010;2023-03-14T14:05:23;1.15;;;0.90;;
39654;SDS011;25336;59.944;11.010;2023-03-14T14:07:52;1.70;;;0.77;;
39654;SDS011;25336;59.944;11.010;2023-03-14T14:10:17;2.08;;;1.05;;
39654;SDS011;25336;59.944;11.010;2023-03-14T14:12:52;3.95;;;1.38;;
39654;SDS011;25336;59.944;11.010;2023-03-14T14:15:28;0.80;;;0.80;;
39654;SDS011;25336;59.944;11.010;2023-03-14T14:17:57;1.08;;;0.70;;
39654;SDS011;25336;59.944;11.010;2023-03-14T14:20:48;4.50;;;0.77;;
39654;SDS011;25336;59.944;11.010;2023-03-14T14:23:14;1.67;;;1.13;;
39654;SDS011;25336;59.944;11.010;2023-03-14T14:25:44;1.75;;;1.20;;
39654;SDS011;25336;59.944;11.010;2023-03-14T14:28:20;5.45;;;1.17;;
39654;SDS011;25336;59.944;11.010;2023-03-14T14:31:01;2.97;;;1.00;;
39654;SDS011;25336;59.944;11.010;2023-03-14T14:33:37;2.05;;;0.80;;
39654;SDS011;25336;59.944;11.010;2023-03-14T14:36:05;1.33;;;0.82;;
39654;SDS011;25336;59.944;11.010;2023-03-14T14:38:49;1.48;;;1.13;;
39654;SDS011;25336;59.944;11.010;2023-03-14T14:41:19;1.52;;;1.10;;
39654;SDS011;25336;59.944;11.010;2023-03-14T14:43:45;1.02;;;0.90;;
39654;SDS011;25336;59.944;11.010;2023-03-14T14:46:13;0.80;;;0.80;;
39654;SDS011;25336;59.944;11.010;2023-03-14T14:48:42;1.30;;;1.05;;
39654;SDS011;25336;59.944;11.010;2023-03-14T14:51:08;2.35;;;0.73;;
39654;SDS011;25336;59.944;11.010;2023-03-14T14:53:38;1.63;;;0.82;;
39654;SDS011;25336;59.944;11.010;2023-03-14T14:56:27;2.22;;;0.90;;
39654;SDS011;25336;59.944;11.010;2023-03-14T14:58:58;2.58;;;0.98;;
39654;SDS011;25336;59.944;11.010;2023-03-14T15:01:30;3.28;;;1.10;;
39654;SDS011;25336;59.944;11.010;2023-03-14T15:03:59;2.53;;;0.80;;
39654;SDS011;25336;59.944;11.010;2023-03-14T15:06:26;1.17;;;0.75;;
39654;SDS011;25336;59.944;11.010;2023-03-14T15:08:54;8.32;;;1.10;;
39654;SDS011;25336;59.944;11.010;2023-03-14T15:11:24;1.23;;;1.13;;
39654;SDS011;25336;59.944;11.010;2023-03-14T15:13:51;1.23;;;1.00;;
39654;SDS011;25336;59.944;11.010;2023-03-14T15:16:18;1.40;;;1.05;;
39654;SDS011;25336;59.944;11.010;2023-03-14T15:18:49;3.15;;;1.10;;
39654;SDS011;25336;59.944;11.010;2023-03-14T15:21:20;0.80;;;0.80;;
39654;SDS011;25336;59.944;11.010;2023-03-14T15:23:45;1.23;;;1.13;;
39654;SDS011;25336;59.944;11.010;2023-03-14T15:26:11;1.67;;;0.80;;
39654;SDS011;25336;59.944;11.010;2023-03-14T15:28:40;0.65;;;0.65;;
39654;SDS011;25336;59.944;11.010;2023-03-14T15:31:08;0.75;;;0.75;;
39654;SDS011;25336;59.944;11.010;2023-03-14T15:33:35;1.00;;;0.85;;
39654;SDS011;25336;59.944;11.010;2023-03-14T15:36:00;1.02;;;0.80;;
39654;SDS011;25336;59.944;11.010;2023-03-14T15:38:26;1.83;;;0.90;;
39654;SDS011;25336;59.944;11.010;2023-03-14T15:40:52;0.95;;;0.80;;
39654;SDS011;25336;59.944;11.010;2023-03-14T15:43:18;2.65;;;0.70;;